createdAt,value
2023-01-11T00:01:09.143Z,13.00
2023-01-11T00:03:36.803Z,10.95
2023-01-11T00:06:04.880Z,9.57
2023-01-11T00:08:32.253Z,8.55
2023-01-11T00:11:02.167Z,9.02
2023-01-11T00:13:31.484Z,8.00
2023-01-11T00:16:20.167Z,12.07
2023-01-11T00:18:47.413Z,8.18
2023-01-11T00:21:14.933Z,8.70
2023-01-11T00:23:42.105Z,9.40
2023-01-11T00:26:13.364Z,7.88
2023-01-11T00:28:40.821Z,8.15
2023-01-11T00:31:09.218Z,12.15
2023-01-11T00:33:46.551Z,7.88
2023-01-11T00:36:15.897Z,7.97
2023-01-11T00:38:55.248Z,10.40
2023-01-11T00:41:46.275Z,10.90
2023-01-11T00:44:39.782Z,9.73
2023-01-11T00:47:34.286Z,9.75
2023-01-11T00:50:02.548Z,10.70
2023-01-11T00:52:29.898Z,9.63
2023-01-11T00:55:01.269Z,10.95
2023-01-11T00:57:36.649Z,9.82
2023-01-11T01:00:06.111Z,10.43
2023-01-11T01:02:34.657Z,14.48
2023-01-11T01:05:03.169Z,8.93
2023-01-11T01:07:38.705Z,11.00
2023-01-11T01:10:07.705Z,10.25
2023-01-11T01:12:54.253Z,10.27
2023-01-11T01:15:25.009Z,11.45
2023-01-11T01:17:56.495Z,10.88
2023-01-11T01:20:25.548Z,10.82
2023-01-11T01:22:55.717Z,12.15
2023-01-11T01:25:23.173Z,13.55
2023-01-11T01:27:54.040Z,10.75
2023-01-11T01:30:21.529Z,12.13
2023-01-11T01:32:48.890Z,12.32
2023-01-11T01:35:16.210Z,11.98
2023-01-11T01:37:44.852Z,20.65
2023-01-11T01:40:13.083Z,16.58
2023-01-11T01:42:40.200Z,18.17
2023-01-11T01:45:28.863Z,15.93
2023-01-11T01:48:02.851Z,18.23
2023-01-11T01:50:38.243Z,12.70
2023-01-11T01:53:13.532Z,18.15
2023-01-11T01:55:49.274Z,14.52
2023-01-11T02:00:46.852Z,13.52
2023-01-11T02:03:25.637Z,12.70
2023-01-11T02:05:54.088Z,11.90
2023-01-11T02:08:38.220Z,11.25
2023-01-11T02:11:27.710Z,11.88
2023-01-11T02:13:58.604Z,11.20
2023-01-11T02:16:27.522Z,12.73
2023-01-11T02:18:58.842Z,10.20
2023-01-11T02:22:14.848Z,10.88
2023-01-11T02:25:34.072Z,11.63
2023-01-11T02:28:32.845Z,11.25
2023-01-11T02:31:50.161Z,11.77
2023-01-11T02:34:32.541Z,13.55
2023-01-11T02:37:38.228Z,9.68
2023-01-11T02:40:27.958Z,10.63
2023-01-11T02:43:32.627Z,9.65
2023-01-11T02:46:12.959Z,10.25
2023-01-11T02:49:05.605Z,11.40
2023-01-11T02:52:00.616Z,13.90
2023-01-11T02:54:31.738Z,11.88
2023-01-11T02:57:01.923Z,11.98
2023-01-11T02:59:35.114Z,13.82
2023-01-11T03:02:03.855Z,11.52
2023-01-11T03:04:39.811Z,11.88
2023-01-11T03:07:48.882Z,12.38
2023-01-11T03:11:06.310Z,12.30
2023-01-11T03:14:08.192Z,14.63
2023-01-11T03:17:06.969Z,13.35
2023-01-11T03:19:51.868Z,17.25
2023-01-11T03:23:37.078Z,10.93
2023-01-11T03:27:03.434Z,12.73
2023-01-11T03:29:33.140Z,13.77
2023-01-11T03:32:33.580Z,15.45
2023-01-11T03:35:35.107Z,13.32
2023-01-11T03:38:16.664Z,14.25
2023-01-11T03:40:53.321Z,12.77
2023-01-11T03:43:24.082Z,11.80
2023-01-11T03:46:14.967Z,12.88
2023-01-11T03:48:55.692Z,11.13
2023-01-11T03:51:32.010Z,16.98
2023-01-11T03:54:06.264Z,14.32
2023-01-11T03:56:51.224Z,11.90
2023-01-11T03:59:19.023Z,9.85
2023-01-11T04:01:46.443Z,15.15
2023-01-11T04:04:13.769Z,13.25
2023-01-11T04:06:41.031Z,12.85
2023-01-11T04:09:08.173Z,14.88
2023-01-11T04:11:35.533Z,10.35
2023-01-11T04:14:02.742Z,12.23
2023-01-11T04:16:29.995Z,11.30
2023-01-11T04:18:57.187Z,11.23
2023-01-11T04:21:24.510Z,10.88
2023-01-11T04:23:52.510Z,11.20
2023-01-11T04:26:19.654Z,11.50
2023-01-11T04:28:46.962Z,11.05
2023-01-11T04:31:14.185Z,11.63
2023-01-11T04:33:41.363Z,13.52
2023-01-11T04:36:11.215Z,13.32
2023-01-11T04:38:38.575Z,10.57
2023-01-11T04:41:24.268Z,11.45
2023-01-11T04:43:56.312Z,13.25
2023-01-11T04:46:24.877Z,11.18
2023-01-11T04:48:52.724Z,13.95
2023-01-11T04:51:20.089Z,9.65
2023-01-11T04:53:51.895Z,11.85
2023-01-11T04:56:19.579Z,11.77
2023-01-11T04:58:47.265Z,10.40
2023-01-11T05:01:19.688Z,12.70
2023-01-11T05:03:47.583Z,10.45
2023-01-11T05:06:15.783Z,9.27
2023-01-11T05:08:47.559Z,13.32
2023-01-11T05:11:20.783Z,13.90
2023-01-11T05:13:48.189Z,10.68
2023-01-11T05:16:24.036Z,7.70
2023-01-11T05:19:01.664Z,8.43
2023-01-11T05:21:39.177Z,12.43
2023-01-11T05:24:17.272Z,10.50
2023-01-11T05:26:48.358Z,12.40
2023-01-11T05:29:16.464Z,9.35
2023-01-11T05:31:44.007Z,11.38
2023-01-11T05:34:14.654Z,10.90
2023-01-11T05:36:42.694Z,9.15
2023-01-11T05:39:12.647Z,9.43
2023-01-11T05:41:40.180Z,17.75
2023-01-11T05:44:30.817Z,12.00
2023-01-11T05:46:58.338Z,11.10
2023-01-11T05:49:25.791Z,9.70
2023-01-11T05:51:53.251Z,10.50
2023-01-11T05:54:20.656Z,10.85
2023-01-11T05:56:47.875Z,9.25
2023-01-11T05:59:15.035Z,15.07
2023-01-11T06:01:42.305Z,8.00
2023-01-11T06:04:09.653Z,9.98
2023-01-11T06:06:36.950Z,10.68
2023-01-11T06:09:04.250Z,11.95
2023-01-11T06:11:31.535Z,9.60
2023-01-11T06:13:58.966Z,9.63
2023-01-11T06:16:30.847Z,10.75
2023-01-11T06:18:58.177Z,11.85
2023-01-11T06:21:25.553Z,10.13
2023-01-11T06:23:52.884Z,12.23
2023-01-11T06:26:25.226Z,10.45
2023-01-11T06:28:57.008Z,13.35
2023-01-11T06:31:24.419Z,12.57
2023-01-11T06:33:52.690Z,12.68
2023-01-11T06:36:20.021Z,13.38
2023-01-11T06:38:47.229Z,14.68
2023-01-11T06:41:14.573Z,12.00
2023-01-11T06:43:42.188Z,12.02
2023-01-11T06:46:15.893Z,12.13
2023-01-11T06:48:44.554Z,10.57
2023-01-11T06:51:13.058Z,12.40
2023-01-11T06:53:42.662Z,9.15
2023-01-11T06:56:20.620Z,9.73
2023-01-11T06:58:48.653Z,9.50
2023-01-11T07:01:17.202Z,12.27
2023-01-11T07:03:45.393Z,11.30
2023-01-11T07:06:13.769Z,13.65
2023-01-11T07:08:42.414Z,14.13
2023-01-11T07:11:09.667Z,12.02
2023-01-11T07:13:36.803Z,10.13
2023-01-11T07:16:04.548Z,18.67
2023-01-11T07:18:33.389Z,18.42
2023-01-11T07:21:00.704Z,16.15
2023-01-11T07:23:27.896Z,12.05
2023-01-11T07:25:55.366Z,15.23
2023-01-11T07:28:22.741Z,13.63
2023-01-11T07:30:58.591Z,18.42
2023-01-11T07:33:27.100Z,13.95
2023-01-11T07:35:54.567Z,15.45
2023-01-11T07:38:22.125Z,16.80
2023-01-11T07:40:49.516Z,17.88
2023-01-11T07:43:18.924Z,17.40
2023-01-11T07:45:49.915Z,10.85
2023-01-11T07:48:26.195Z,14.30
2023-01-11T07:50:54.163Z,13.50
2023-01-11T07:53:25.386Z,12.63
2023-01-11T07:55:55.092Z,18.85
2023-01-11T07:58:22.514Z,15.65
2023-01-11T08:00:49.685Z,15.43
2023-01-11T08:03:17.041Z,14.07
2023-01-11T08:05:49.399Z,14.30
2023-01-11T08:08:16.557Z,18.05
2023-01-11T08:10:43.673Z,13.82
2023-01-11T08:13:33.356Z,12.10
2023-01-11T08:16:00.723Z,14.98
2023-01-11T08:18:29.006Z,15.95
2023-01-11T08:20:56.300Z,12.82
2023-01-11T08:23:23.461Z,14.73
2023-01-11T08:25:50.647Z,24.48
2023-01-11T08:28:17.791Z,16.35
2023-01-11T08:30:45.195Z,9.43
2023-01-11T08:33:12.479Z,12.75
2023-01-11T08:35:39.947Z,16.55
2023-01-11T08:38:08.064Z,13.00
2023-01-11T08:40:36.048Z,7.43
2023-01-11T08:43:03.339Z,11.45
2023-01-11T08:45:30.801Z,12.00
2023-01-11T08:48:00.220Z,18.98
2023-01-11T08:50:27.611Z,10.45
2023-01-11T08:52:54.838Z,9.60
2023-01-11T08:55:22.099Z,8.35
2023-01-11T08:57:49.248Z,11.05
2023-01-11T09:00:17.459Z,8.65
2023-01-11T09:02:47.835Z,9.25
2023-01-11T09:05:17.504Z,7.75
2023-01-11T09:07:46.233Z,16.02
2023-01-11T09:10:13.377Z,9.57
2023-01-11T09:12:40.557Z,7.70
2023-01-11T09:15:10.402Z,7.38
2023-01-11T09:17:37.659Z,9.07
2023-01-11T09:20:06.045Z,10.23
2023-01-11T09:22:33.940Z,7.50
2023-01-11T09:25:01.216Z,7.40
2023-01-11T09:27:28.328Z,10.27
2023-01-11T09:29:55.533Z,12.00
2023-01-11T09:32:23.161Z,9.68
2023-01-11T09:34:53.315Z,14.32
2023-01-11T09:37:22.593Z,12.88
2023-01-11T09:39:51.584Z,9.82
2023-01-11T09:42:39.593Z,14.75
2023-01-11T09:45:35.298Z,12.02
2023-01-11T09:48:28.723Z,4.80
2023-01-11T09:50:57.648Z,6.55
2023-01-11T09:53:34.682Z,4.82
2023-01-11T09:56:12.070Z,7.72
2023-01-11T09:59:42.461Z,5.75
2023-01-11T10:03:17.274Z,6.85
2023-01-11T10:06:24.148Z,5.85
2023-01-11T10:18:33.343Z,4.90
2023-01-11T10:22:08.221Z,4.20
2023-01-11T10:24:52.775Z,5.75
2023-01-11T10:27:42.034Z,5.20
2023-01-11T10:30:31.694Z,6.72
2023-01-11T10:33:13.577Z,5.72
2023-01-11T10:36:51.198Z,6.07
2023-01-11T10:39:54.926Z,4.78
2023-01-11T10:42:30.092Z,5.80
2023-01-11T10:45:19.040Z,6.72
2023-01-11T10:48:05.849Z,5.72
2023-01-11T10:51:24.811Z,5.95
2023-01-11T10:54:22.166Z,4.38
2023-01-11T10:57:38.905Z,5.30
2023-01-11T11:00:53.239Z,8.70
2023-01-11T11:03:39.645Z,10.48
2023-01-11T11:06:27.257Z,9.00
2023-01-11T11:09:37.332Z,6.22
2023-01-11T11:12:30.887Z,4.97
2023-01-11T11:15:18.807Z,10.60
2023-01-11T11:17:54.117Z,6.93
2023-01-11T11:20:29.367Z,7.55
2023-01-11T11:22:57.608Z,10.43
2023-01-11T11:25:38.007Z,4.32
2023-01-11T11:28:33.007Z,5.28
2023-01-11T11:31:07.477Z,3.67
2023-01-11T11:33:40.900Z,4.82
2023-01-11T11:36:14.118Z,4.72
2023-01-11T11:39:05.379Z,8.68
2023-01-11T11:41:52.537Z,6.80
2023-01-11T11:44:27.380Z,9.10
2023-01-11T11:47:06.054Z,14.75
2023-01-11T11:49:36.699Z,7.43
2023-01-11T11:52:05.619Z,5.20
2023-01-11T11:54:53.583Z,7.63
2023-01-11T11:57:29.886Z,6.95
2023-01-11T12:00:30.970Z,6.20
2023-01-11T12:03:24.137Z,6.55
2023-01-11T12:06:05.216Z,6.90
2023-01-11T12:08:36.020Z,6.35
2023-01-11T12:11:07.625Z,10.23
2023-01-11T12:13:42.344Z,13.10
2023-01-11T12:16:42.636Z,9.65
2023-01-11T12:19:38.237Z,7.50
2023-01-11T12:22:26.497Z,14.43
2023-01-11T12:25:25.385Z,12.35
2023-01-11T12:28:49.784Z,10.65
2023-01-11T12:31:44.268Z,12.45
2023-01-11T12:34:40.615Z,10.55
2023-01-11T12:37:35.209Z,10.52
2023-01-11T12:40:40.269Z,12.90
2023-01-11T12:43:41.543Z,12.50
2023-01-11T12:46:55.509Z,10.25
2023-01-11T12:50:03.601Z,9.75
2023-01-11T12:52:53.814Z,10.48
2023-01-11T12:55:48.593Z,9.98
2023-01-11T12:58:39.685Z,8.25
2023-01-11T13:01:39.312Z,10.35
2023-01-11T13:04:58.795Z,11.88
2023-01-11T13:07:59.439Z,11.60
2023-01-11T13:11:12.798Z,8.13
2023-01-11T13:14:33.612Z,9.60
2023-01-11T13:17:32.803Z,8.55
2023-01-11T13:20:59.861Z,9.38
2023-01-11T13:23:41.913Z,7.65
2023-01-11T13:26:45.961Z,8.63
2023-01-11T13:29:48.704Z,8.18
2023-01-11T13:32:24.994Z,9.75
2023-01-11T13:35:14.137Z,7.93
2023-01-11T13:38:25.519Z,9.70
2023-01-11T13:41:00.063Z,10.27
2023-01-11T13:43:45.462Z,11.40
2023-01-11T13:47:07.075Z,11.55
2023-01-11T13:50:10.461Z,11.48
2023-01-11T13:53:15.364Z,16.42
2023-01-11T13:56:06.368Z,38.40
2023-01-11T13:59:13.162Z,52.90
2023-01-11T14:02:03.106Z,13.13
2023-01-11T14:04:57.651Z,29.88
2023-01-11T14:08:18.976Z,31.80
2023-01-11T14:11:36.384Z,9.77
2023-01-11T14:14:51.047Z,11.13
2023-01-11T14:18:09.221Z,12.48
2023-01-11T14:21:25.211Z,15.80
2023-01-11T14:23:55.086Z,8.48
2023-01-11T14:27:05.238Z,9.50
2023-01-11T14:30:46.238Z,10.80
2023-01-11T14:33:56.461Z,8.90
2023-01-11T14:36:44.726Z,8.20
2023-01-11T14:39:52.248Z,8.70
2023-01-11T14:43:02.841Z,10.80
2023-01-11T14:46:48.286Z,8.82
2023-01-11T14:49:37.217Z,12.07
2023-01-11T14:52:16.373Z,9.25
2023-01-11T14:54:48.483Z,5.90
2023-01-11T14:57:41.505Z,7.43
2023-01-11T15:00:20.779Z,6.90
2023-01-11T15:02:54.114Z,5.38
2023-01-11T15:05:33.071Z,7.13
2023-01-11T15:08:15.579Z,5.78
2023-01-11T15:11:04.108Z,9.15
2023-01-11T15:13:47.043Z,5.78
2023-01-11T15:16:42.633Z,8.98
2023-01-11T15:19:34.502Z,7.30
2023-01-11T15:22:05.008Z,7.78
2023-01-11T15:24:41.929Z,7.47
2023-01-11T15:27:31.593Z,6.07
2023-01-11T15:29:59.283Z,9.88
2023-01-11T15:32:33.870Z,8.85
2023-01-11T15:35:23.104Z,8.90
2023-01-11T15:38:11.082Z,8.48
2023-01-11T15:40:43.592Z,9.02
2023-01-11T15:44:05.384Z,10.52
2023-01-11T15:46:53.647Z,9.77
2023-01-11T15:49:54.764Z,8.95
2023-01-11T15:53:23.660Z,11.45
2023-01-11T15:56:31.411Z,11.60
2023-01-11T15:59:55.120Z,13.27
2023-01-11T16:02:37.128Z,9.30
2023-01-11T16:05:27.037Z,8.02
2023-01-11T16:08:32.769Z,12.57
2023-01-11T16:11:22.129Z,11.88
2023-01-11T16:14:43.643Z,12.00
2023-01-11T16:17:19.864Z,12.25
2023-01-11T16:19:47.121Z,11.57
2023-01-11T16:22:20.780Z,10.73
2023-01-11T16:24:53.514Z,14.13
2023-01-11T16:27:34.180Z,10.35
2023-01-11T16:30:02.151Z,10.25
2023-01-11T16:32:35.192Z,13.18
2023-01-11T16:35:16.903Z,11.98
2023-01-11T16:37:49.590Z,13.75
2023-01-11T16:40:24.673Z,9.05
2023-01-11T16:42:57.819Z,12.82
2023-01-11T16:45:41.562Z,11.30
2023-01-11T16:48:28.383Z,9.55
2023-01-11T16:51:17.053Z,10.65
2023-01-11T16:53:54.666Z,10.82
2023-01-11T16:56:24.149Z,10.13
2023-01-11T16:59:15.818Z,9.50
2023-01-11T17:02:04.017Z,10.88
2023-01-11T17:04:50.471Z,10.70
2023-01-11T17:07:26.635Z,13.55
2023-01-11T17:10:19.981Z,10.45
2023-01-11T17:13:40.783Z,12.55
2023-01-11T17:16:15.178Z,10.10
2023-01-11T17:18:43.964Z,12.98
2023-01-11T17:21:19.217Z,11.57
2023-01-11T17:23:49.437Z,9.70
2023-01-11T17:26:28.442Z,13.52
2023-01-11T17:28:59.556Z,11.93
2023-01-11T17:31:32.405Z,16.40
2023-01-11T17:34:27.011Z,10.15
2023-01-11T17:36:55.367Z,12.55
2023-01-11T17:39:33.717Z,16.27
2023-01-11T17:42:24.800Z,13.82
2023-01-11T17:45:13.278Z,17.50
2023-01-11T17:47:51.769Z,11.18
2023-01-11T17:51:07.463Z,14.13
2023-01-11T17:53:37.462Z,12.02
2023-01-11T17:56:37.726Z,19.63
2023-01-11T17:59:23.596Z,14.18
2023-01-11T18:02:00.333Z,16.85
2023-01-11T18:04:28.802Z,18.63
2023-01-11T18:07:22.509Z,15.88
2023-01-11T18:10:03.869Z,14.00
2023-01-11T18:12:40.972Z,16.20
2023-01-11T18:15:36.172Z,12.98
2023-01-11T18:18:56.480Z,12.35
2023-01-11T18:21:53.362Z,13.63
2023-01-11T18:24:45.508Z,21.80
2023-01-11T18:27:26.236Z,18.48
2023-01-11T18:30:11.530Z,20.17
2023-01-11T18:32:47.636Z,19.50
2023-01-11T18:35:19.257Z,15.43
2023-01-11T18:37:47.417Z,21.35
2023-01-11T18:40:19.201Z,20.52
2023-01-11T18:42:52.827Z,16.40
2023-01-11T18:45:21.851Z,14.88
2023-01-11T18:48:01.094Z,16.15
2023-01-11T18:50:47.779Z,17.42
2023-01-11T18:53:21.946Z,20.92
2023-01-11T18:55:51.688Z,19.80
2023-01-11T18:58:18.970Z,24.85
2023-01-11T19:00:46.556Z,20.48
2023-01-11T19:05:42.284Z,20.00
2023-01-11T19:08:09.793Z,16.35
2023-01-11T19:10:36.958Z,15.98
2023-01-11T19:13:04.299Z,17.10
2023-01-11T19:15:35.094Z,19.85
2023-01-11T19:18:03.880Z,17.63
2023-01-11T19:22:59.310Z,19.83
2023-01-11T19:25:26.555Z,20.58
2023-01-11T19:27:55.025Z,21.98
2023-01-11T19:30:22.503Z,27.65
2023-01-11T19:32:57.705Z,23.60
2023-01-11T19:35:26.303Z,19.63
2023-01-11T19:37:53.734Z,22.33
2023-01-11T19:40:21.464Z,21.60
2023-01-11T19:42:53.267Z,18.85
2023-01-11T19:45:20.546Z,22.35
2023-01-11T19:47:47.860Z,18.00
2023-01-11T19:50:17.599Z,23.70
2023-01-11T19:52:46.720Z,18.80
2023-01-11T19:55:14.051Z,14.90
2023-01-11T19:57:41.464Z,22.63
2023-01-11T20:00:11.619Z,20.48
2023-01-11T20:02:42.395Z,19.77
2023-01-11T20:05:10.131Z,18.98
2023-01-11T20:07:37.466Z,20.02
2023-01-11T20:10:05.536Z,21.05
2023-01-11T20:12:32.741Z,19.60
2023-01-11T20:15:01.334Z,23.75
2023-01-11T20:17:29.186Z,21.23
2023-01-11T20:19:56.475Z,20.90
2023-01-11T20:22:25.091Z,31.65
2023-01-11T20:24:52.519Z,23.25
2023-01-11T20:27:19.878Z,25.25
2023-01-11T20:29:47.824Z,28.02
2023-01-11T20:32:39.334Z,23.05
2023-01-11T20:35:05.200Z,20.17
2023-01-11T20:37:36.282Z,20.80
2023-01-11T20:40:04.135Z,25.75
2023-01-11T20:42:31.832Z,23.95
2023-01-11T20:44:59.179Z,26.70
2023-01-11T20:47:26.759Z,24.13
2023-01-11T20:50:02.154Z,23.40
2023-01-11T20:52:32.300Z,21.98
2023-01-11T20:55:16.149Z,24.95
2023-01-11T21:24:24.579Z,19.63
2023-01-11T21:26:54.219Z,21.23
2023-01-11T21:29:23.923Z,17.52
2023-01-11T21:31:53.603Z,22.05
2023-01-11T21:34:37.208Z,19.80
2023-01-11T21:37:25.923Z,22.90
2023-01-11T21:40:04.553Z,18.60
2023-01-11T21:42:38.911Z,19.45
2023-01-11T21:45:08.589Z,18.65
2023-01-11T21:47:36.149Z,19.70
2023-01-11T21:50:33.611Z,19.88
2023-01-11T21:53:01.104Z,16.67
2023-01-11T21:55:49.770Z,22.65
2023-01-11T21:58:44.782Z,21.00
2023-01-11T22:01:28.841Z,20.42
2023-01-11T22:04:12.937Z,18.85
2023-01-11T22:06:46.289Z,22.40
2023-01-11T22:09:30.083Z,24.42
2023-01-11T22:12:01.410Z,20.00
2023-01-11T22:14:30.483Z,20.80
2023-01-11T22:16:57.875Z,19.58
2023-01-11T22:19:32.887Z,19.33
2023-01-11T22:22:00.290Z,18.73
2023-01-11T22:24:48.828Z,23.75
2023-01-11T22:27:18.507Z,19.67
2023-01-11T22:29:48.192Z,22.20
2023-01-11T22:32:15.616Z,21.33
2023-01-11T22:34:45.237Z,24.70
2023-01-11T22:37:12.463Z,21.00
2023-01-11T22:39:40.779Z,20.98
2023-01-11T22:42:08.142Z,22.08
2023-01-11T22:44:36.206Z,21.40
2023-01-11T22:47:03.700Z,22.77
2023-01-11T22:49:30.971Z,22.88
2023-01-11T22:51:58.227Z,23.15
2023-01-11T22:54:28.309Z,20.38
2023-01-11T22:56:59.301Z,21.63
2023-01-11T22:59:27.417Z,20.25
2023-01-11T23:01:57.112Z,24.05
2023-01-11T23:04:43.699Z,28.67
2023-01-11T23:07:38.392Z,25.23
2023-01-11T23:10:11.049Z,27.92
2023-01-11T23:13:03.152Z,25.88
2023-01-11T23:15:30.641Z,23.23
2023-01-11T23:17:57.844Z,30.90
2023-01-11T23:20:28.624Z,28.90
2023-01-11T23:22:55.846Z,29.10
2023-01-11T23:25:26.319Z,24.85
2023-01-11T23:27:53.488Z,27.33
2023-01-11T23:30:20.683Z,21.75
2023-01-11T23:32:47.923Z,27.48
2023-01-11T23:35:15.257Z,25.15
2023-01-11T23:37:42.419Z,25.85
2023-01-11T23:40:10.733Z,25.92
2023-01-11T23:42:38.492Z,27.45
2023-01-11T23:45:06.773Z,25.40
2023-01-11T23:47:33.991Z,24.83
2023-01-11T23:50:01.489Z,25.58
2023-01-11T23:52:32.746Z,28.73
2023-01-11T23:54:59.997Z,30.92
2023-01-11T23:57:27.295Z,24.42
2023-01-11T23:59:56.698Z,24.33
